Time;durP1;ratioP1;P1;durP2;ratioP2;P2;SDS_P1;SDS_P2;PMS_P1;PMS_P2;Temp;Humidity;BMP_temperature;BMP_pressure;BME280_temperature;BME280_humidity;BME280_pressure;Samples;Min_cycle;Max_cycle;Signal;HPM_P1;HPM_P2
2023/07/08 00:02:13;;;;;;;6.87;3.90;;;;;;;;;;4907428;29;20181;-81
2023/07/08 00:05:20;;;;;;;5.73;3.50;;;;;;;;;;4918439;29;20220;-81
2023/07/08 00:08:25;;;;;;;6.00;3.57;;;;;;;;;;4918443;29;20676;-81
2023/07/08 00:11:29;;;;;;;4.83;3.20;;;;;;;;;;4919369;29;20203;-81
2023/07/08 00:14:33;;;;;;;5.00;3.43;;;;;;;;;;4907449;29;20220;-81
2023/07/08 00:17:37;;;;;;;5.40;3.57;;;;;;;;;;4907219;29;20193;-81
2023/07/08 00:20:47;;;;;;;5.57;3.90;;;;;;;;;;4918202;29;20649;-81
2023/07/08 00:23:51;;;;;;;4.53;3.70;;;;;;;;;;4918761;29;20193;-81
2023/07/08 00:26:56;;;;;;;5.00;3.40;;;;;;;;;;4917510;29;20200;-81
2023/07/08 00:30:00;;;;;;;7.13;3.63;;;;;;;;;;4917907;29;20224;-81
2023/07/08 00:33:06;;;;;;;4.97;3.50;;;;;;;;;;4917738;29;20201;-81
2023/07/08 00:36:15;;;;;;;4.50;3.43;;;;;;;;;;4906991;29;20188;-81
2023/07/08 00:39:19;;;;;;;5.43;3.73;;;;;;;;;;4906815;29;20177;-81
2023/07/08 00:42:24;;;;;;;6.77;3.70;;;;;;;;;;4906840;29;20629;-81
2023/07/08 00:45:40;;;;;;;5.03;3.63;;;;;;;;;;4906717;29;20224;-81
2023/07/08 00:48:45;;;;;;;4.57;3.50;;;;;;;;;;4906333;29;20204;-81
2023/07/08 00:51:50;;;;;;;5.43;3.77;;;;;;;;;;4906638;29;20189;-81
2023/07/08 00:54:59;;;;;;;4.40;3.50;;;;;;;;;;4906318;29;20220;-81
2023/07/08 00:58:04;;;;;;;5.43;3.80;;;;;;;;;;4917121;29;20205;-81
2023/07/08 01:01:09;;;;;;;6.03;4.03;;;;;;;;;;4906339;29;20181;-81
2023/07/08 01:04:33;;;;;;;5.50;3.50;;;;;;;;;;4917230;29;20217;-81
2023/07/08 01:07:40;;;;;;;5.50;3.97;;;;;;;;;;4917322;29;20193;-81
2023/07/08 01:10:54;;;;;;;4.93;3.83;;;;;;;;;;4906409;29;20545;-80
2023/07/08 01:14:00;;;;;;;7.73;3.83;;;;;;;;;;4905935;29;20221;-81
2023/07/08 01:17:05;;;;;;;7.27;3.53;;;;;;;;;;4906253;29;20181;-81
2023/07/08 01:20:12;;;;;;;6.27;4.33;;;;;;;;;;4906639;29;20172;-81
2023/07/08 01:23:18;;;;;;;5.03;3.73;;;;;;;;;;4916845;29;20184;-81
2023/07/08 01:26:25;;;;;;;7.20;3.93;;;;;;;;;;4918098;29;20185;-81
2023/07/08 01:29:29;;;;;;;5.43;4.13;;;;;;;;;;4917075;29;20525;-81
2023/07/08 01:32:43;;;;;;;5.17;3.70;;;;;;;;;;4917277;29;20193;-81
2023/07/08 01:35:49;;;;;;;7.60;3.80;;;;;;;;;;4906149;29;20224;-81
2023/07/08 01:38:53;;;;;;;7.47;3.63;;;;;;;;;;4917273;29;20185;-81
2023/07/08 01:41:57;;;;;;;5.47;3.30;;;;;;;;;;4906271;29;20533;-81
2023/07/08 01:45:09;;;;;;;4.97;3.70;;;;;;;;;;4916795;29;20220;-81
2023/07/08 01:48:20;;;;;;;4.17;3.57;;;;;;;;;;4906302;29;20557;-81
2023/07/08 01:51:26;;;;;;;6.37;4.10;;;;;;;;;;4920484;29;20220;-81
2023/07/08 01:54:30;;;;;;;6.87;3.80;;;;;;;;;;4911404;29;20224;-81
2023/07/08 01:57:34;;;;;;;7.57;4.93;;;;;;;;;;4920720;29;20633;-81
2023/07/08 02:00:38;;;;;;;8.00;3.83;;;;;;;;;;4920963;29;20656;-81
2023/07/08 02:03:42;;;;;;;7.07;4.27;;;;;;;;;;4921177;29;20208;-81
2023/07/08 02:06:59;;;;;;;8.57;4.37;;;;;;;;;;4909597;29;20181;-81
2023/07/08 02:10:03;;;;;;;11.17;4.50;;;;;;;;;;4909565;29;20204;-81
2023/07/08 02:13:08;;;;;;;7.90;4.20;;;;;;;;;;4909873;29;20851;-81
2023/07/08 02:16:12;;;;;;;8.07;4.10;;;;;;;;;;4920408;29;20196;-81
2023/07/08 02:19:17;;;;;;;7.30;4.07;;;;;;;;;;4920247;29;20189;-81
2023/07/08 02:22:22;;;;;;;5.60;3.83;;;;;;;;;;4909154;29;20173;-81
2023/07/08 02:25:26;;;;;;;5.77;3.87;;;;;;;;;;4909349;29;20216;-81
2023/07/08 02:28:31;;;;;;;4.87;3.70;;;;;;;;;;4920230;29;20636;-83
2023/07/08 02:31:35;;;;;;;6.13;4.07;;;;;;;;;;4908688;29;20247;-83
2023/07/08 02:34:39;;;;;;;5.83;3.87;;;;;;;;;;4919464;29;20233;-82
2023/07/08 02:37:44;;;;;;;7.10;3.67;;;;;;;;;;4908997;29;20181;-83
2023/07/08 02:40:50;;;;;;;4.20;3.80;;;;;;;;;;4908656;29;20177;-83
2023/07/08 02:43:55;;;;;;;7.60;4.10;;;;;;;;;;4908695;29;20216;-83
2023/07/08 02:47:00;;;;;;;5.43;3.80;;;;;;;;;;4919803;29;20192;-83
2023/07/08 02:50:04;;;;;;;5.17;3.80;;;;;;;;;;4908479;29;20184;-83
2023/07/08 02:53:09;;;;;;;4.77;3.63;;;;;;;;;;4908586;29;20181;-82
2023/07/08 02:56:13;;;;;;;5.17;3.37;;;;;;;;;;4908652;29;20185;-83
2023/07/08 02:59:17;;;;;;;5.67;3.97;;;;;;;;;;4919221;29;20530;-83
2023/07/08 03:02:22;;;;;;;5.63;3.77;;;;;;;;;;4908070;29;20510;-83
2023/07/08 03:05:26;;;;;;;6.10;3.67;;;;;;;;;;4908740;29;20700;-83
2023/07/08 03:08:30;;;;;;;6.07;4.07;;;;;;;;;;4908310;29;20181;-82
2023/07/08 03:11:35;;;;;;;5.63;3.97;;;;;;;;;;4907753;29;20675;-83
2023/07/08 03:14:39;;;;;;;5.20;3.93;;;;;;;;;;4918574;29;20228;-83
2023/07/08 03:17:43;;;;;;;4.17;3.53;;;;;;;;;;4908072;29;20189;-83
2023/07/08 03:20:48;;;;;;;5.50;3.60;;;;;;;;;;4908200;29;20181;-83
2023/07/08 03:23:53;;;;;;;4.47;3.60;;;;;;;;;;4918714;29;20225;-83
2023/07/08 03:27:00;;;;;;;4.23;3.43;;;;;;;;;;4907839;29;20657;-83
2023/07/08 03:30:05;;;;;;;4.83;3.43;;;;;;;;;;4907989;29;20177;-83
2023/07/08 03:33:11;;;;;;;4.57;3.87;;;;;;;;;;4908397;29;20193;-83
2023/07/08 03:36:25;;;;;;;6.43;3.80;;;;;;;;;;4983843;23;20233;-87
2023/07/08 03:39:31;;;;;;;6.47;4.20;;;;;;;;;;5003525;28;20177;-87
2023/07/08 03:42:35;;;;;;;6.70;4.10;;;;;;;;;;4992229;28;20173;-87
2023/07/08 03:45:39;;;;;;;5.83;3.90;;;;;;;;;;5014926;28;20212;-87
2023/07/08 03:48:43;;;;;;;7.13;4.20;;;;;;;;;;5003448;28;20186;-87
2023/07/08 03:51:49;;;;;;;6.03;3.90;;;;;;;;;;5003286;28;20664;-87
2023/07/08 03:54:56;;;;;;;8.03;3.63;;;;;;;;;;5003301;28;20173;-87
2023/07/08 03:58:00;;;;;;;7.17;3.93;;;;;;;;;;5003188;28;20177;-87
2023/07/08 04:01:20;;;;;;;5.10;4.17;;;;;;;;;;5003637;28;20173;-87
2023/07/08 04:04:24;;;;;;;6.10;4.53;;;;;;;;;;4992302;28;20530;-88
2023/07/08 04:07:28;;;;;;;6.20;4.37;;;;;;;;;;5003197;28;20185;-87
2023/07/08 04:10:32;;;;;;;7.60;4.37;;;;;;;;;;5014464;28;20185;-88
2023/07/08 04:13:36;;;;;;;6.97;4.13;;;;;;;;;;5014145;28;20177;-87
2023/07/08 04:16:54;;;;;;;6.47;4.73;;;;;;;;;;5013923;28;20692;-87
2023/07/08 04:19:58;;;;;;;7.07;4.73;;;;;;;;;;5014492;28;20181;-87
2023/07/08 04:23:02;;;;;;;7.07;3.97;;;;;;;;;;5014187;28;20186;-87
2023/07/08 04:26:08;;;;;;;6.63;4.00;;;;;;;;;;5013811;28;20221;-88
2023/07/08 04:29:14;;;;;;;6.43;4.40;;;;;;;;;;5014278;28;20189;-87
2023/07/08 04:32:18;;;;;;;7.03;4.63;;;;;;;;;;5002582;28;20554;-87
2023/07/08 04:35:22;;;;;;;6.03;4.40;;;;;;;;;;5013886;28;20687;-87
2023/07/08 04:38:27;;;;;;;6.17;4.73;;;;;;;;;;5014084;28;20182;-87
2023/07/08 04:41:31;;;;;;;6.00;4.20;;;;;;;;;;5013851;28;20174;-88
2023/07/08 04:44:39;;;;;;;8.73;5.10;;;;;;;;;;5013684;28;20178;-89
2023/07/08 04:47:46;;;;;;;6.53;4.60;;;;;;;;;;4991103;28;20193;-88
2023/07/08 04:50:51;;;;;;;7.30;4.87;;;;;;;;;;5002212;28;20225;-88
2023/07/08 04:53:55;;;;;;;7.80;4.70;;;;;;;;;;5002267;28;20186;-88
2023/07/08 04:56:59;;;;;;;8.43;5.33;;;;;;;;;;5002013;28;20212;-88
2023/07/08 05:00:07;;;;;;;8.30;5.57;;;;;;;;;;5002532;28;20205;-88
2023/07/08 05:03:11;;;;;;;7.30;5.27;;;;;;;;;;4992881;28;20169;-88
2023/07/08 05:06:15;;;;;;;6.90;5.73;;;;;;;;;;5002052;28;20213;-88
2023/07/08 05:09:22;;;;;;;11.53;5.63;;;;;;;;;;5013712;28;20177;-88
2023/07/08 05:12:26;;;;;;;7.10;4.93;;;;;;;;;;5001913;28;20214;-87
2023/07/08 05:15:30;;;;;;;10.23;5.60;;;;;;;;;;5001927;28;20213;-87
2023/07/08 05:18:34;;;;;;;9.30;5.13;;;;;;;;;;5001855;28;20669;-87
2023/07/08 05:21:39;;;;;;;8.07;5.33;;;;;;;;;;5002068;28;20173;-87
2023/07/08 05:24:43;;;;;;;8.77;4.93;;;;;;;;;;5000988;28;20177;-87
2023/07/08 05:27:47;;;;;;;7.53;5.50;;;;;;;;;;5012882;28;20178;-87
2023/07/08 05:30:55;;;;;;;7.87;5.00;;;;;;;;;;5002158;28;20178;-87
2023/07/08 05:33:59;;;;;;;6.80;5.00;;;;;;;;;;4990616;28;20201;-87
2023/07/08 05:37:04;;;;;;;6.17;4.70;;;;;;;;;;5001727;28;20228;-89
2023/07/08 05:40:32;;;;;;;7.87;4.80;;;;;;;;;;5013796;28;20182;-87
2023/07/08 05:43:36;;;;;;;7.03;4.53;;;;;;;;;;5001931;28;20174;-88
2023/07/08 05:46:40;;;;;;;8.10;4.60;;;;;;;;;;5012732;28;20217;-88
2023/07/08 05:49:44;;;;;;;8.60;5.27;;;;;;;;;;5001623;28;20197;-88
2023/07/08 05:52:49;;;;;;;7.30;4.73;;;;;;;;;;5001800;28;20209;-87
2023/07/08 05:55:54;;;;;;;15.53;4.80;;;;;;;;;;4990567;28;20217;-87
2023/07/08 05:58:58;;;;;;;20.80;5.30;;;;;;;;;;5002437;28;20197;-87
2023/07/08 06:02:03;;;;;;;15.93;5.13;;;;;;;;;;5002206;28;20193;-88
2023/07/08 06:05:07;;;;;;;15.20;5.70;;;;;;;;;;4991245;28;20185;-87
2023/07/08 06:08:11;;;;;;;12.03;4.27;;;;;;;;;;5002001;28;20195;-88
2023/07/08 06:11:16;;;;;;;16.57;4.70;;;;;;;;;;5003233;28;20218;-89
2023/07/08 06:14:20;;;;;;;11.53;4.53;;;;;;;;;;5012870;28;20177;-88
2023/07/08 06:17:24;;;;;;;6.03;4.33;;;;;;;;;;5001144;28;20225;-88
2023/07/08 06:20:29;;;;;;;7.73;4.77;;;;;;;;;;4991439;28;20182;-91
2023/07/08 06:23:33;;;;;;;14.07;4.87;;;;;;;;;;5001575;28;20190;-89
2023/07/08 06:26:37;;;;;;;7.33;4.73;;;;;;;;;;5012503;28;20226;-88
2023/07/08 06:29:41;;;;;;;5.43;4.13;;;;;;;;;;5001229;28;20177;-88
2023/07/08 06:32:45;;;;;;;5.83;4.17;;;;;;;;;;5001360;28;20209;-88
2023/07/08 06:35:49;;;;;;;8.40;4.53;;;;;;;;;;5013800;28;20228;-88
2023/07/08 06:38:54;;;;;;;6.83;4.60;;;;;;;;;;5005757;28;20189;-89
2023/07/08 06:41:58;;;;;;;40.60;5.67;;;;;;;;;;5016292;28;20189;-89
2023/07/08 06:45:08;;;;;;;9.17;4.63;;;;;;;;;;4994682;28;20198;-88
2023/07/08 06:48:12;;;;;;;5.37;3.77;;;;;;;;;;5016274;28;20186;-84
2023/07/08 06:51:17;;;;;;;8.20;5.53;;;;;;;;;;5005064;28;20185;-85
2023/07/08 06:54:21;;;;;;;6.50;4.23;;;;;;;;;;5004771;28;20173;-85
2023/07/08 06:57:25;;;;;;;6.37;4.43;;;;;;;;;;5015674;28;20213;-86
2023/07/08 07:00:29;;;;;;;5.17;4.37;;;;;;;;;;5015599;28;20177;-85
2023/07/08 07:03:33;;;;;;;11.47;5.00;;;;;;;;;;5015635;28;20186;-85
2023/07/08 07:06:37;;;;;;;10.20;4.70;;;;;;;;;;5004357;28;20228;-84
2023/07/08 07:09:41;;;;;;;9.53;4.40;;;;;;;;;;5007052;28;20189;-85
2023/07/08 07:12:45;;;;;;;6.37;4.27;;;;;;;;;;5018611;28;20210;-85
2023/07/08 07:15:49;;;;;;;5.63;4.30;;;;;;;;;;5017245;28;20218;-85
2023/07/08 07:18:55;;;;;;;6.93;5.40;;;;;;;;;;5003861;28;20533;-88
2023/07/08 07:21:58;;;;;;;5.50;4.37;;;;;;;;;;5003845;28;20180;-88
2023/07/08 07:25:10;;;;;;;8.73;4.97;;;;;;;;;;5006319;28;20192;-83
2023/07/08 07:28:16;;;;;;;6.70;4.97;;;;;;;;;;4981355;28;20196;-84
2023/07/08 07:31:20;;;;;;;6.27;4.40;;;;;;;;;;4992690;28;20189;-84
2023/07/08 07:34:24;;;;;;;8.93;4.57;;;;;;;;;;4993873;28;20199;-84
2023/07/08 07:37:28;;;;;;;5.37;4.77;;;;;;;;;;4994107;28;20673;-84
2023/07/08 07:40:33;;;;;;;5.70;4.13;;;;;;;;;;4994840;28;20183;-85
2023/07/08 07:43:37;;;;;;;7.47;4.60;;;;;;;;;;4996089;28;20176;-84
2023/07/08 07:46:41;;;;;;;6.10;4.97;;;;;;;;;;4980889;28;20222;-84
2023/07/08 07:49:45;;;;;;;9.30;4.55;;;;;;;;;;5004222;28;20199;-84
2023/07/08 07:52:49;;;;;;;7.53;4.43;;;;;;;;;;5004809;28;20233;-84
2023/07/08 07:56:01;;;;;;;9.18;4.63;;;;;;;;;;4988251;28;20219;-86
2023/07/08 07:59:05;;;;;;;24.50;6.03;;;;;;;;;;4993803;28;20193;-86
2023/07/08 08:02:11;;;;;;;7.68;4.75;;;;;;;;;;4996732;28;20194;-85
2023/07/08 08:05:15;;;;;;;18.33;5.50;;;;;;;;;;4992093;28;20189;-86
2023/07/08 08:08:20;;;;;;;12.02;5.40;;;;;;;;;;4999877;28;20187;-86
2023/07/08 08:11:25;;;;;;;8.27;5.18;;;;;;;;;;5003822;28;20192;-85
2023/07/08 08:14:30;;;;;;;7.40;4.55;;;;;;;;;;4996171;28;20533;-85
2023/07/08 08:17:35;;;;;;;7.80;4.38;;;;;;;;;;4993441;28;20185;-84
2023/07/08 08:20:40;;;;;;;7.80;4.68;;;;;;;;;;4992850;28;20521;-84
2023/07/08 08:23:45;;;;;;;6.55;4.68;;;;;;;;;;4992679;28;20192;-84
2023/07/08 08:26:49;;;;;;;6.88;4.53;;;;;;;;;;4994442;28;20220;-84
2023/07/08 08:29:53;;;;;;;6.45;4.72;;;;;;;;;;4991254;28;20210;-86
2023/07/08 08:32:57;;;;;;;5.65;4.65;;;;;;;;;;4982692;28;20235;-86
2023/07/08 08:36:01;;;;;;;7.80;4.65;;;;;;;;;;4991301;28;20235;-86
2023/07/08 08:39:05;;;;;;;6.93;4.90;;;;;;;;;;4994048;28;20184;-86
2023/07/08 08:43:02;;;;;;;8.23;4.82;;;;;;;;;;5005106;28;20176;-86
2023/07/08 08:46:16;;;;;;;7.43;4.88;;;;;;;;;;4954128;29;20230;-86
2023/07/08 08:49:44;;;;;;;10.80;5.05;;;;;;;;;;4944493;28;20577;-86
2023/07/08 08:52:48;;;;;;;6.22;5.10;;;;;;;;;;4993762;28;20224;-86
2023/07/08 08:56:09;;;;;;;6.22;4.30;;;;;;;;;;4982546;28;20215;-86
2023/07/08 08:59:35;;;;;;;6.28;4.40;;;;;;;;;;4993543;28;20184;-86
2023/07/08 09:02:46;;;;;;;6.03;3.83;;;;;;;;;;4993850;28;20187;-86
2023/07/08 09:05:51;;;;;;;6.85;4.80;;;;;;;;;;4993411;28;20221;-85
2023/07/08 09:08:59;;;;;;;6.90;4.88;;;;;;;;;;4993465;28;20187;-86
2023/07/08 09:12:09;;;;;;;6.40;4.75;;;;;;;;;;4982514;28;20180;-86
2023/07/08 09:15:15;;;;;;;7.50;4.95;;;;;;;;;;4993341;28;20179;-86
2023/07/08 09:18:30;;;;;;;7.28;4.75;;;;;;;;;;4982342;28;20185;-86
2023/07/08 09:21:56;;;;;;;7.03;5.05;;;;;;;;;;4993176;28;20197;-86
2023/07/08 09:25:09;;;;;;;6.07;4.75;;;;;;;;;;4993463;28;20178;-86
2023/07/08 09:28:14;;;;;;;9.00;5.10;;;;;;;;;;5004743;28;20194;-86
2023/07/08 09:31:24;;;;;;;6.70;4.95;;;;;;;;;;4993280;28;20661;-86
2023/07/08 09:34:49;;;;;;;7.72;4.50;;;;;;;;;;5004329;28;20176;-86
2023/07/08 09:37:53;;;;;;;5.85;4.93;;;;;;;;;;4997599;23;20240;-82
2023/07/08 09:40:57;;;;;;;6.35;4.90;;;;;;;;;;4974335;28;20625;-83
2023/07/08 09:44:13;;;;;;;6.85;5.25;;;;;;;;;;4973944;28;20177;-80
2023/07/08 09:47:32;;;;;;;5.47;4.63;;;;;;;;;;4985061;28;20222;-81
2023/07/08 09:50:36;;;;;;;10.27;4.88;;;;;;;;;;4973385;28;20523;-80
2023/07/08 09:53:40;;;;;;;12.48;4.93;;;;;;;;;;4979333;28;20218;-80
2023/07/08 09:56:54;;;;;;;9.40;5.10;;;;;;;;;;4950910;28;20207;-81
2023/07/08 10:00:02;;;;;;;7.43;5.00;;;;;;;;;;4971438;28;20188;-81
2023/07/08 10:03:18;;;;;;;9.93;5.55;;;;;;;;;;4977453;28;20187;-81
2023/07/08 10:06:30;;;;;;;4.95;4.32;;;;;;;;;;4973557;28;20647;-81
2023/07/08 10:09:34;;;;;;;5.18;4.68;;;;;;;;;;4962739;28;20531;-81
2023/07/08 10:12:40;;;;;;;6.03;4.63;;;;;;;;;;4990497;28;20234;-81
2023/07/08 10:15:49;;;;;;;8.93;5.72;;;;;;;;;;4966969;28;20198;-81
2023/07/08 10:18:54;;;;;;;6.30;4.95;;;;;;;;;;4957660;28;20195;-81
2023/07/08 10:22:37;;;;;;;6.97;5.03;;;;;;;;;;4979434;28;20209;-81
2023/07/08 10:26:27;;;;;;;5.65;5.05;;;;;;;;;;4956907;28;20199;-81
2023/07/08 10:29:41;;;;;;;6.22;4.75;;;;;;;;;;4921820;28;20181;-81
2023/07/08 10:33:20;;;;;;;7.25;5.32;;;;;;;;;;4990330;28;20207;-81
2023/07/08 10:36:51;;;;;;;8.35;5.13;;;;;;;;;;4979886;28;20524;-81
2023/07/08 10:40:11;;;;;;;6.47;5.07;;;;;;;;;;4967675;28;20180;-81
2023/07/08 10:43:33;;;;;;;6.50;5.30;;;;;;;;;;4967675;28;20188;-82
2023/07/08 10:47:05;;;;;;;7.53;5.18;;;;;;;;;;4979049;28;20188;-81
2023/07/08 10:50:09;;;;;;;6.32;5.40;;;;;;;;;;4967358;28;20179;-81
2023/07/08 10:53:47;;;;;;;6.05;4.78;;;;;;;;;;4956538;28;20678;-81
2023/07/08 10:57:06;;;;;;;7.05;5.30;;;;;;;;;;4979042;28;20219;-82
2023/07/08 11:00:34;;;;;;;6.65;5.30;;;;;;;;;;4967052;28;20187;-82
2023/07/08 11:04:00;;;;;;;6.07;4.88;;;;;;;;;;5000467;28;20542;-81
2023/07/08 11:07:30;;;;;;;7.40;5.10;;;;;;;;;;4967009;28;20219;-82
2023/07/08 11:10:49;;;;;;;6.55;5.13;;;;;;;;;;4977797;28;20183;-81
2023/07/08 11:14:23;;;;;;;8.43;4.82;;;;;;;;;;4993951;28;20219;-82
2023/07/08 11:17:41;;;;;;;6.07;4.95;;;;;;;;;;4955904;28;20219;-82
2023/07/08 11:20:59;;;;;;;9.88;5.60;;;;;;;;;;4966734;28;20187;-82
2023/07/08 11:24:21;;;;;;;6.25;4.97;;;;;;;;;;4955043;28;20187;-82
2023/07/08 11:27:30;;;;;;;9.70;4.90;;;;;;;;;;4977742;28;20219;-82
2023/07/08 11:30:39;;;;;;;6.78;5.32;;;;;;;;;;4967126;28;20187;-82
2023/07/08 11:33:45;;;;;;;10.00;4.80;;;;;;;;;;4955120;28;20215;-82
2023/07/08 11:36:50;;;;;;;9.35;5.60;;;;;;;;;;4966089;28;20230;-82
2023/07/08 11:40:17;;;;;;;6.45;5.13;;;;;;;;;;4966628;28;20183;-82
2023/07/08 11:43:24;;;;;;;6.28;5.65;;;;;;;;;;4966764;28;20175;-82
2023/07/08 11:46:33;;;;;;;8.55;5.28;;;;;;;;;;4955325;28;20187;-82
2023/07/08 11:49:37;;;;;;;6.80;5.68;;;;;;;;;;4966559;28;20207;-82
2023/07/08 11:52:51;;;;;;;5.85;5.03;;;;;;;;;;4978130;28;20191;-82
2023/07/08 11:55:58;;;;;;;6.88;4.97;;;;;;;;;;4978523;28;20187;-82
2023/07/08 11:59:14;;;;;;;5.93;4.95;;;;;;;;;;4977119;28;20630;-82
2023/07/08 12:02:19;;;;;;;6.25;5.03;;;;;;;;;;4966474;28;20192;-82
2023/07/08 12:05:36;;;;;;;5.72;4.70;;;;;;;;;;4946726;29;20196;-81
2023/07/08 12:08:41;;;;;;;7.15;5.10;;;;;;;;;;4969295;28;20216;-82
2023/07/08 12:11:47;;;;;;;10.20;4.95;;;;;;;;;;4969625;28;20535;-82
2023/07/08 12:15:01;;;;;;;6.50;4.40;;;;;;;;;;4976044;28;20211;-82
2023/07/08 12:18:08;;;;;;;6.43;4.68;;;;;;;;;;4947225;29;20228;-82
2023/07/08 12:21:13;;;;;;;6.63;5.00;;;;;;;;;;4946274;28;20191;-82
2023/07/08 12:24:17;;;;;;;5.80;4.63;;;;;;;;;;4982423;28;20207;-81
2023/07/08 12:27:22;;;;;;;5.90;5.07;;;;;;;;;;4960490;28;20693;-82
2023/07/08 12:30:28;;;;;;;7.25;4.70;;;;;;;;;;4959847;28;20627;-82
2023/07/08 12:33:34;;;;;;;9.50;5.70;;;;;;;;;;4949437;28;20219;-82
2023/07/08 12:36:38;;;;;;;6.90;4.95;;;;;;;;;;4952681;28;20199;-82
2023/07/08 12:39:42;;;;;;;8.38;4.65;;;;;;;;;;4964067;28;20651;-82
2023/07/08 12:42:46;;;;;;;6.57;5.10;;;;;;;;;;4986189;28;20179;-82
2023/07/08 12:45:51;;;;;;;9.38;5.38;;;;;;;;;;4986358;28;20175;-82
2023/07/08 12:48:55;;;;;;;7.97;5.38;;;;;;;;;;4974893;28;20187;-82
2023/07/08 12:51:59;;;;;;;6.18;4.95;;;;;;;;;;4965911;28;20542;-82
2023/07/08 12:55:03;;;;;;;6.15;5.30;;;;;;;;;;4966420;28;20666;-82
2023/07/08 12:58:18;;;;;;;5.90;5.28;;;;;;;;;;4977794;28;20570;-82
2023/07/08 13:01:25;;;;;;;6.10;5.38;;;;;;;;;;4987994;28;20658;-82
2023/07/08 13:04:31;;;;;;;7.35;5.07;;;;;;;;;;4987269;28;20175;-82
2023/07/08 13:07:35;;;;;;;6.43;5.22;;;;;;;;;;4977411;28;20690;-82
2023/07/08 13:10:41;;;;;;;6.18;5.05;;;;;;;;;;4964591;28;20186;-82
2023/07/08 13:13:58;;;;;;;5.93;4.75;;;;;;;;;;4972704;28;20214;-82
2023/07/08 13:17:04;;;;;;;5.93;5.32;;;;;;;;;;4954905;28;20219;-83
2023/07/08 13:20:15;;;;;;;7.05;5.65;;;;;;;;;;4955302;28;20187;-82
2023/07/08 13:23:21;;;;;;;9.50;5.18;;;;;;;;;;4964782;28;20180;-82
2023/07/08 13:26:30;;;;;;;7.95;5.20;;;;;;;;;;4987073;28;20195;-82
2023/07/08 13:29:35;;;;;;;8.23;5.25;;;;;;;;;;4965094;28;20183;-82
2023/07/08 13:32:39;;;;;;;6.53;5.68;;;;;;;;;;4965169;28;20187;-82
2023/07/08 13:35:43;;;;;;;9.48;5.40;;;;;;;;;;4954708;28;20179;-83
2023/07/08 13:38:49;;;;;;;7.72;5.88;;;;;;;;;;4953481;28;20219;-82
2023/07/08 13:41:54;;;;;;;7.35;5.45;;;;;;;;;;4974038;28;20179;-82
2023/07/08 13:44:58;;;;;;;17.20;6.70;;;;;;;;;;4974088;28;20195;-82
2023/07/08 13:48:18;;;;;;;6.97;5.30;;;;;;;;;;4955850;28;20281;-82
2023/07/08 13:51:24;;;;;;;10.02;5.03;;;;;;;;;;4967140;28;20188;-82
2023/07/08 13:54:37;;;;;;;7.22;5.60;;;;;;;;;;4966762;28;20214;-82
2023/07/08 13:57:41;;;;;;;10.65;5.10;;;;;;;;;;4966578;28;20219;-82
2023/07/08 14:00:46;;;;;;;8.05;5.47;;;;;;;;;;4978028;28;20565;-82
2023/07/08 14:03:51;;;;;;;8.65;5.25;;;;;;;;;;4978054;28;20183;-82
2023/07/08 14:06:55;;;;;;;7.60;5.40;;;;;;;;;;4978574;28;20670;-82
2023/07/08 14:10:00;;;;;;;8.52;5.47;;;;;;;;;;4978003;28;20183;-82
2023/07/08 14:13:04;;;;;;;5.90;4.82;;;;;;;;;;4966749;28;20550;-81
2023/07/08 14:16:25;;;;;;;6.18;4.95;;;;;;;;;;4988915;28;20186;-82
2023/07/08 14:19:32;;;;;;;6.25;4.20;;;;;;;;;;4955035;28;20187;-81
2023/07/08 14:22:37;;;;;;;9.93;5.25;;;;;;;;;;4954910;28;20187;-82
2023/07/08 14:25:41;;;;;;;8.45;4.97;;;;;;;;;;4976900;28;20199;-81
2023/07/08 14:28:45;;;;;;;9.23;4.75;;;;;;;;;;4955452;28;20218;-81
2023/07/08 14:31:49;;;;;;;11.07;5.15;;;;;;;;;;4989161;28;20187;-81
2023/07/08 14:35:00;;;;;;;13.40;6.10;;;;;;;;;;4985996;28;20223;-81
2023/07/08 14:38:10;;;;;;;6.88;5.32;;;;;;;;;;4987931;28;20587;-81
2023/07/08 14:41:14;;;;;;;7.25;4.85;;;;;;;;;;4978308;28;20187;-82
2023/07/08 14:44:22;;;;;;;6.20;4.82;;;;;;;;;;4978037;28;20519;-82
2023/07/08 14:47:26;;;;;;;9.23;4.95;;;;;;;;;;4979798;28;20215;-82
2023/07/08 14:50:30;;;;;;;4.68;4.22;;;;;;;;;;5000777;28;20529;-82
2023/07/08 14:53:34;;;;;;;7.57;5.05;;;;;;;;;;4978336;28;20195;-82
2023/07/08 14:56:40;;;;;;;8.90;5.22;;;;;;;;;;4954436;28;20179;-82
2023/07/08 14:59:45;;;;;;;7.97;4.75;;;;;;;;;;4977759;28;20682;-81
2023/07/08 15:02:51;;;;;;;5.03;4.25;;;;;;;;;;4977127;28;20187;-81
2023/07/08 15:05:55;;;;;;;14.90;5.32;;;;;;;;;;4965855;28;20666;-81
2023/07/08 15:08:59;;;;;;;6.05;4.22;;;;;;;;;;4954857;28;20188;-81
2023/07/08 15:12:04;;;;;;;7.60;4.70;;;;;;;;;;4962609;28;20179;-81
2023/07/08 15:15:28;;;;;;;7.20;4.35;;;;;;;;;;4965775;28;20211;-81
2023/07/08 15:18:33;;;;;;;5.28;4.50;;;;;;;;;;4966120;28;20219;-82
2023/07/08 15:21:38;;;;;;;10.55;4.95;;;;;;;;;;4977367;28;20187;-83
2023/07/08 15:24:42;;;;;;;5.55;4.70;;;;;;;;;;4977455;28;20195;-82
2023/07/08 15:27:51;;;;;;;7.32;4.47;;;;;;;;;;4994238;28;20223;-82
2023/07/08 15:31:02;;;;;;;7.75;4.57;;;;;;;;;;4977861;28;20183;-83
2023/07/08 15:34:15;;;;;;;8.32;7.45;;;;;;;;;;4966400;28;20207;-83
2023/07/08 15:37:19;;;;;;;5.63;4.40;;;;;;;;;;4988275;28;20714;-82
2023/07/08 15:40:25;;;;;;;5.97;4.15;;;;;;;;;;5018936;23;20229;-86
2023/07/08 15:43:29;;;;;;;13.55;5.03;;;;;;;;;;5003904;28;20174;-85
2023/07/08 15:46:37;;;;;;;6.47;4.63;;;;;;;;;;4992533;28;20247;-84
2023/07/08 15:49:41;;;;;;;7.03;4.32;;;;;;;;;;4996840;28;20182;-85
2023/07/08 15:52:45;;;;;;;8.05;4.50;;;;;;;;;;4983923;28;20182;-86
2023/07/08 15:55:50;;;;;;;5.22;4.70;;;;;;;;;;4993695;28;20211;-85
2023/07/08 15:58:55;;;;;;;5.55;4.40;;;;;;;;;;4980919;28;20206;-85
2023/07/08 16:02:10;;;;;;;7.15;4.47;;;;;;;;;;4982199;28;20202;-86
2023/07/08 16:05:14;;;;;;;10.43;4.78;;;;;;;;;;4996169;28;20654;-86
2023/07/08 16:08:19;;;;;;;7.60;4.30;;;;;;;;;;4995316;28;20182;-86
2023/07/08 16:11:29;;;;;;;14.43;6.82;;;;;;;;;;4996246;28;20222;-85
2023/07/08 16:14:33;;;;;;;9.98;7.13;;;;;;;;;;4996866;28;20207;-86
2023/07/08 16:17:38;;;;;;;9.40;4.72;;;;;;;;;;4984551;28;20183;-86
2023/07/08 16:20:42;;;;;;;8.45;4.20;;;;;;;;;;5007108;28;20210;-86
2023/07/08 16:23:46;;;;;;;15.25;8.15;;;;;;;;;;4995097;28;20182;-86
2023/07/08 16:26:50;;;;;;;6.78;4.80;;;;;;;;;;4982912;28;20179;-86
2023/07/08 16:29:54;;;;;;;5.40;4.35;;;;;;;;;;4992640;28;20685;-86
2023/07/08 16:32:59;;;;;;;6.78;4.45;;;;;;;;;;4982802;28;20183;-86
2023/07/08 16:36:03;;;;;;;6.57;4.63;;;;;;;;;;4996141;28;20210;-86
2023/07/08 16:39:07;;;;;;;5.65;4.20;;;;;;;;;;4985653;28;20178;-86
2023/07/08 16:42:15;;;;;;;5.78;3.97;;;;;;;;;;4984905;28;20178;-86
2023/07/08 16:45:21;;;;;;;6.32;4.57;;;;;;;;;;5007480;28;20170;-85
2023/07/08 16:48:25;;;;;;;13.88;10.88;;;;;;;;;;4997432;28;20179;-86
2023/07/08 16:51:30;;;;;;;38.30;28.98;;;;;;;;;;4986086;28;20227;-85
2023/07/08 16:54:36;;;;;;;28.80;20.42;;;;;;;;;;4986485;28;20229;-86
2023/07/08 16:57:41;;;;;;;244.00;213.65;;;;;;;;;;4997753;28;20188;-86
2023/07/08 17:00:46;;;;;;;65.47;14.57;;;;;;;;;;4987162;28;20218;-86
2023/07/08 17:03:52;;;;;;;48.95;12.32;;;;;;;;;;4986641;28;20744;-85
2023/07/08 17:06:57;;;;;;;8.48;5.68;;;;;;;;;;4982736;28;20180;-85
2023/07/08 17:10:01;;;;;;;8.43;5.90;;;;;;;;;;4992405;28;20210;-85
2023/07/08 17:13:05;;;;;;;45.92;41.25;;;;;;;;;;4996408;28;20182;-85
2023/07/08 17:16:13;;;;;;;55.72;49.10;;;;;;;;;;4990620;28;20213;-85
2023/07/08 17:19:18;;;;;;;27.35;21.55;;;;;;;;;;4982854;28;20193;-85
2023/07/08 17:22:22;;;;;;;537.25;400.52;;;;;;;;;;4984593;28;20203;-86
2023/07/08 17:26:39;;;;;;;289.80;257.75;;;;;;;;;;4989829;28;20723;-86
2023/07/08 17:29:44;;;;;;;499.13;444.20;;;;;;;;;;4988166;28;20216;-86
2023/07/08 17:32:53;;;;;;;1241.18;911.97;;;;;;;;;;5016927;28;20203;-84
2023/07/08 17:35:57;;;;;;;891.97;788.90;;;;;;;;;;5007727;28;20232;-86
2023/07/08 17:39:03;;;;;;;1957.75;999.90;;;;;;;;;;5009674;28;20184;-86
2023/07/08 17:42:08;;;;;;;347.83;311.55;;;;;;;;;;5020601;28;20182;-86
2023/07/08 17:45:16;;;;;;;63.95;44.67;;;;;;;;;;5020490;28;20195;-86
2023/07/08 17:48:25;;;;;;;17.80;13.45;;;;;;;;;;5019891;28;20660;-86
2023/07/08 17:51:34;;;;;;;65.70;49.60;;;;;;;;;;5032035;28;20584;-86
2023/07/08 17:54:38;;;;;;;37.08;33.35;;;;;;;;;;5022359;28;20204;-86
2023/07/08 17:57:47;;;;;;;21.92;14.60;;;;;;;;;;5026323;28;20189;-86
2023/07/08 18:00:51;;;;;;;1736.95;999.90;;;;;;;;;;5019163;28;20227;-86
2023/07/08 18:03:55;;;;;;;161.88;144.20;;;;;;;;;;5030499;28;20541;-86
2023/07/08 18:07:00;;;;;;;14.60;9.88;;;;;;;;;;5018605;28;20190;-86
2023/07/08 18:10:04;;;;;;;8.80;5.40;;;;;;;;;;5017602;28;20219;-86
2023/07/08 18:13:18;;;;;;;7.00;4.68;;;;;;;;;;5003874;28;20208;-83
2023/07/08 18:16:23;;;;;;;7.25;4.85;;;;;;;;;;5003512;28;20677;-86
2023/07/08 18:19:27;;;;;;;7.38;4.85;;;;;;;;;;4977402;28;20187;-85
2023/07/08 18:22:31;;;;;;;10.68;5.80;;;;;;;;;;4978320;28;20641;-86
2023/07/08 18:25:35;;;;;;;7.88;5.70;;;;;;;;;;4990401;28;20199;-86
2023/07/08 18:28:40;;;;;;;10.63;6.93;;;;;;;;;;4993757;28;20192;-85
2023/07/08 18:31:44;;;;;;;10.23;6.38;;;;;;;;;;5017493;28;20224;-86
2023/07/08 18:34:48;;;;;;;7.95;6.22;;;;;;;;;;5024876;28;20181;-86
2023/07/08 18:37:53;;;;;;;9.20;5.53;;;;;;;;;;5026931;28;20189;-85
2023/07/08 18:40:58;;;;;;;7.35;5.35;;;;;;;;;;5015578;28;20231;-85